sensor_id;sensor_type;location;lat;lon;timestamp;P1;durP1;ratioP1;P2;durP2;ratioP2
36585;SDS011;22591;48.314;11.562;2022-12-18T00:01:14;147.53;;;54.03;;
36585;SDS011;22591;48.314;11.562;2022-12-18T00:03:44;130.27;;;51.23;;
36585;SDS011;22591;48.314;11.562;2022-12-18T00:06:10;131.17;;;49.57;;
36585;SDS011;22591;48.314;11.562;2022-12-18T00:08:37;137.03;;;48.17;;
36585;SDS011;22591;48.314;11.562;2022-12-18T00:11:04;129.13;;;47.77;;
36585;SDS011;22591;48.314;11.562;2022-12-18T00:13:30;127.33;;;50.47;;
36585;SDS011;22591;48.314;11.562;2022-12-18T00:16:00;130.30;;;48.40;;
36585;SDS011;22591;48.314;11.562;2022-12-18T00:18:31;109.53;;;44.77;;
36585;SDS011;22591;48.314;11.562;2022-12-18T00:21:01;115.77;;;44.77;;
36585;SDS011;22591;48.314;11.562;2022-12-18T00:23:29;127.90;;;47.13;;
36585;SDS011;22591;48.314;11.562;2022-12-18T00:25:58;161.07;;;83.33;;
36585;SDS011;22591;48.314;11.562;2022-12-18T00:28:29;106.67;;;47.33;;
36585;SDS011;22591;48.314;11.562;2022-12-18T00:31:05;115.10;;;45.53;;
36585;SDS011;22591;48.314;11.562;2022-12-18T00:33:35;115.72;;;48.45;;
36585;SDS011;22591;48.314;11.562;2022-12-18T00:36:05;108.67;;;45.30;;
36585;SDS011;22591;48.314;11.562;2022-12-18T00:38:36;117.53;;;46.87;;
36585;SDS011;22591;48.314;11.562;2022-12-18T00:41:03;134.53;;;52.63;;
36585;SDS011;22591;48.314;11.562;2022-12-18T00:43:29;118.73;;;50.00;;
36585;SDS011;22591;48.314;11.562;2022-12-18T00:45:55;128.23;;;49.07;;
36585;SDS011;22591;48.314;11.562;2022-12-18T00:48:20;113.73;;;47.63;;
36585;SDS011;22591;48.314;11.562;2022-12-18T00:50:47;125.20;;;51.00;;
36585;SDS011;22591;48.314;11.562;2022-12-18T00:53:13;99.43;;;45.50;;
36585;SDS011;22591;48.314;11.562;2022-12-18T00:55:39;114.83;;;49.13;;
36585;SDS011;22591;48.314;11.562;2022-12-18T00:58:05;119.03;;;48.00;;
36585;SDS011;22591;48.314;11.562;2022-12-18T01:00:31;112.63;;;48.50;;
36585;SDS011;22591;48.314;11.562;2022-12-18T01:02:56;112.57;;;43.63;;
36585;SDS011;22591;48.314;11.562;2022-12-18T01:05:22;97.20;;;42.27;;
36585;SDS011;22591;48.314;11.562;2022-12-18T01:07:47;96.40;;;43.13;;
36585;SDS011;22591;48.314;11.562;2022-12-18T01:10:13;101.17;;;41.87;;
36585;SDS011;22591;48.314;11.562;2022-12-18T01:12:39;106.73;;;42.87;;
36585;SDS011;22591;48.314;11.562;2022-12-18T01:15:05;104.07;;;43.17;;
36585;SDS011;22591;48.314;11.562;2022-12-18T01:17:32;121.07;;;44.87;;
36585;SDS011;22591;48.314;11.562;2022-12-18T01:19:58;112.67;;;44.63;;
36585;SDS011;22591;48.314;11.562;2022-12-18T01:22:23;114.37;;;43.47;;
36585;SDS011;22591;48.314;11.562;2022-12-18T01:24:49;109.70;;;43.03;;
36585;SDS011;22591;48.314;11.562;2022-12-18T01:27:14;115.37;;;44.33;;
36585;SDS011;22591;48.314;11.562;2022-12-18T01:29:40;100.97;;;41.87;;
36585;SDS011;22591;48.314;11.562;2022-12-18T01:32:05;85.63;;;39.23;;
36585;SDS011;22591;48.314;11.562;2022-12-18T01:34:31;91.03;;;39.07;;
36585;SDS011;22591;48.314;11.562;2022-12-18T01:36:57;102.67;;;44.00;;
36585;SDS011;22591;48.314;11.562;2022-12-18T01:39:22;103.17;;;42.03;;
36585;SDS011;22591;48.314;11.562;2022-12-18T01:41:48;105.27;;;44.50;;
36585;SDS011;22591;48.314;11.562;2022-12-18T01:50:20;81.33;;;37.67;;
36585;SDS011;22591;48.314;11.562;2022-12-18T01:52:50;87.73;;;39.53;;
36585;SDS011;22591;48.314;11.562;2022-12-18T01:55:19;90.53;;;38.47;;
36585;SDS011;22591;48.314;11.562;2022-12-18T01:57:49;94.50;;;38.80;;
36585;SDS011;22591;48.314;11.562;2022-12-18T02:00:19;93.23;;;39.80;;
36585;SDS011;22591;48.314;11.562;2022-12-18T02:02:46;88.73;;;38.43;;
36585;SDS011;22591;48.314;11.562;2022-12-18T02:05:14;88.73;;;39.33;;
36585;SDS011;22591;48.314;11.562;2022-12-18T02:08:04;104.37;;;39.77;;
36585;SDS011;22591;48.314;11.562;2022-12-18T02:14:04;93.80;;;39.30;;
36585;SDS011;22591;48.314;11.562;2022-12-18T02:16:41;105.57;;;40.47;;
36585;SDS011;22591;48.314;11.562;2022-12-18T02:19:15;84.57;;;37.03;;
36585;SDS011;22591;48.314;11.562;2022-12-18T02:24:56;102.83;;;40.30;;
36585;SDS011;22591;48.314;11.562;2022-12-18T02:27:41;93.00;;;38.60;;
36585;SDS011;22591;48.314;11.562;2022-12-18T02:30:10;102.17;;;40.53;;
36585;SDS011;22591;48.314;11.562;2022-12-18T02:32:40;100.30;;;39.43;;
36585;SDS011;22591;48.314;11.562;2022-12-18T02:35:11;96.07;;;41.00;;
36585;SDS011;22591;48.314;11.562;2022-12-18T02:37:41;98.53;;;37.50;;
36585;SDS011;22591;48.314;11.562;2022-12-18T02:40:10;91.03;;;40.40;;
36585;SDS011;22591;48.314;11.562;2022-12-18T02:42:38;90.10;;;38.07;;
36585;SDS011;22591;48.314;11.562;2022-12-18T02:45:04;87.43;;;38.67;;
36585;SDS011;22591;48.314;11.562;2022-12-18T02:47:32;97.60;;;41.57;;
36585;SDS011;22591;48.314;11.562;2022-12-18T02:58:27;94.00;;;39.37;;
36585;SDS011;22591;48.314;11.562;2022-12-18T03:01:02;89.17;;;37.67;;
36585;SDS011;22591;48.314;11.562;2022-12-18T03:03:33;107.00;;;40.03;;
36585;SDS011;22591;48.314;11.562;2022-12-18T03:06:23;85.97;;;36.40;;
36585;SDS011;22591;48.314;11.562;2022-12-18T03:08:58;88.60;;;34.40;;
36585;SDS011;22591;48.314;11.562;2022-12-18T03:11:38;95.37;;;33.20;;
36585;SDS011;22591;48.314;11.562;2022-12-18T03:14:25;94.97;;;35.13;;
36585;SDS011;22591;48.314;11.562;2022-12-18T03:16:54;109.80;;;38.57;;
36585;SDS011;22591;48.314;11.562;2022-12-18T03:19:26;95.73;;;38.37;;
36585;SDS011;22591;48.314;11.562;2022-12-18T03:21:55;102.30;;;37.73;;
36585;SDS011;22591;48.314;11.562;2022-12-18T03:24:23;107.60;;;40.33;;
36585;SDS011;22591;48.314;11.562;2022-12-18T03:26:52;84.27;;;34.93;;
36585;SDS011;22591;48.314;11.562;2022-12-18T03:29:22;117.32;;;37.63;;
36585;SDS011;22591;48.314;11.562;2022-12-18T03:31:53;109.40;;;36.97;;
36585;SDS011;22591;48.314;11.562;2022-12-18T03:34:26;100.73;;;36.63;;
36585;SDS011;22591;48.314;11.562;2022-12-18T03:36:55;106.77;;;36.17;;
36585;SDS011;22591;48.314;11.562;2022-12-18T03:39:22;103.40;;;35.97;;
36585;SDS011;22591;48.314;11.562;2022-12-18T03:42:07;81.63;;;35.47;;
36585;SDS011;22591;48.314;11.562;2022-12-18T03:47:30;82.77;;;32.80;;
36585;SDS011;22591;48.314;11.562;2022-12-18T03:52:50;82.00;;;35.70;;
36585;SDS011;22591;48.314;11.562;2022-12-18T03:55:32;86.00;;;34.70;;
36585;SDS011;22591;48.314;11.562;2022-12-18T03:58:01;87.13;;;34.10;;
36585;SDS011;22591;48.314;11.562;2022-12-18T04:00:28;86.73;;;34.93;;
36585;SDS011;22591;48.314;11.562;2022-12-18T04:02:55;95.10;;;37.20;;
36585;SDS011;22591;48.314;11.562;2022-12-18T04:05:24;80.87;;;32.27;;
36585;SDS011;22591;48.314;11.562;2022-12-18T04:07:51;87.10;;;33.20;;
36585;SDS011;22591;48.314;11.562;2022-12-18T04:10:19;74.63;;;32.30;;
36585;SDS011;22591;48.314;11.562;2022-12-18T04:12:45;79.47;;;35.13;;
36585;SDS011;22591;48.314;11.562;2022-12-18T04:15:11;86.10;;;34.43;;
36585;SDS011;22591;48.314;11.562;2022-12-18T04:17:38;83.40;;;34.53;;
36585;SDS011;22591;48.314;11.562;2022-12-18T04:20:08;90.03;;;34.60;;
36585;SDS011;22591;48.314;11.562;2022-12-18T04:22:34;84.83;;;34.33;;
36585;SDS011;22591;48.314;11.562;2022-12-18T04:25:00;78.03;;;31.83;;
36585;SDS011;22591;48.314;11.562;2022-12-18T04:27:25;81.07;;;34.37;;
36585;SDS011;22591;48.314;11.562;2022-12-18T04:29:51;65.90;;;30.30;;
36585;SDS011;22591;48.314;11.562;2022-12-18T04:32:16;83.23;;;35.40;;
36585;SDS011;22591;48.314;11.562;2022-12-18T04:34:42;78.23;;;34.27;;
36585;SDS011;22591;48.314;11.562;2022-12-18T04:37:07;81.20;;;33.90;;
36585;SDS011;22591;48.314;11.562;2022-12-18T04:39:33;85.03;;;34.47;;
36585;SDS011;22591;48.314;11.562;2022-12-18T04:41:58;80.97;;;35.17;;
36585;SDS011;22591;48.314;11.562;2022-12-18T04:44:24;86.37;;;33.57;;
36585;SDS011;22591;48.314;11.562;2022-12-18T04:46:50;86.43;;;34.77;;
36585;SDS011;22591;48.314;11.562;2022-12-18T04:49:15;89.43;;;33.57;;
36585;SDS011;22591;48.314;11.562;2022-12-18T04:51:41;96.33;;;34.83;;
36585;SDS011;22591;48.314;11.562;2022-12-18T04:54:06;72.33;;;32.23;;
36585;SDS011;22591;48.314;11.562;2022-12-18T04:56:32;80.10;;;34.83;;
36585;SDS011;22591;48.314;11.562;2022-12-18T04:58:57;79.67;;;32.57;;
36585;SDS011;22591;48.314;11.562;2022-12-18T05:01:23;74.87;;;32.60;;
36585;SDS011;22591;48.314;11.562;2022-12-18T05:03:50;83.83;;;34.80;;
36585;SDS011;22591;48.314;11.562;2022-12-18T05:06:16;90.53;;;32.77;;
36585;SDS011;22591;48.314;11.562;2022-12-18T05:08:42;77.20;;;30.97;;
36585;SDS011;22591;48.314;11.562;2022-12-18T05:11:08;77.73;;;33.17;;
36585;SDS011;22591;48.314;11.562;2022-12-18T05:13:35;86.43;;;32.60;;
36585;SDS011;22591;48.314;11.562;2022-12-18T05:16:03;82.67;;;31.90;;
36585;SDS011;22591;48.314;11.562;2022-12-18T05:18:29;78.93;;;32.00;;
36585;SDS011;22591;48.314;11.562;2022-12-18T05:20:55;67.83;;;28.37;;
36585;SDS011;22591;48.314;11.562;2022-12-18T05:23:21;76.03;;;31.90;;
36585;SDS011;22591;48.314;11.562;2022-12-18T05:25:50;69.77;;;29.53;;
36585;SDS011;22591;48.314;11.562;2022-12-18T05:28:17;73.50;;;32.17;;
36585;SDS011;22591;48.314;11.562;2022-12-18T05:30:47;82.47;;;32.33;;
36585;SDS011;22591;48.314;11.562;2022-12-18T05:33:17;81.13;;;31.37;;
36585;SDS011;22591;48.314;11.562;2022-12-18T05:35:43;76.50;;;30.47;;
36585;SDS011;22591;48.314;11.562;2022-12-18T05:38:09;77.43;;;33.17;;
36585;SDS011;22591;48.314;11.562;2022-12-18T05:40:35;83.47;;;33.43;;
36585;SDS011;22591;48.314;11.562;2022-12-18T05:43:04;64.23;;;30.03;;
36585;SDS011;22591;48.314;11.562;2022-12-18T05:45:30;85.37;;;32.90;;
36585;SDS011;22591;48.314;11.562;2022-12-18T05:47:55;82.07;;;32.83;;
36585;SDS011;22591;48.314;11.562;2022-12-18T05:50:21;75.53;;;32.80;;
36585;SDS011;22591;48.314;11.562;2022-12-18T05:52:46;76.60;;;34.13;;
36585;SDS011;22591;48.314;11.562;2022-12-18T05:55:12;76.00;;;34.03;;
36585;SDS011;22591;48.314;11.562;2022-12-18T05:57:37;86.43;;;36.90;;
36585;SDS011;22591;48.314;11.562;2022-12-18T06:00:03;74.50;;;32.40;;
36585;SDS011;22591;48.314;11.562;2022-12-18T06:02:29;72.00;;;32.47;;
36585;SDS011;22591;48.314;11.562;2022-12-18T06:04:55;75.50;;;31.07;;
36585;SDS011;22591;48.314;11.562;2022-12-18T06:07:20;68.93;;;29.47;;
36585;SDS011;22591;48.314;11.562;2022-12-18T06:09:46;73.83;;;32.60;;
36585;SDS011;22591;48.314;11.562;2022-12-18T06:12:11;71.30;;;31.23;;
36585;SDS011;22591;48.314;11.562;2022-12-18T06:14:37;67.40;;;30.03;;
36585;SDS011;22591;48.314;11.562;2022-12-18T06:17:02;67.07;;;31.00;;
36585;SDS011;22591;48.314;11.562;2022-12-18T06:19:28;72.23;;;28.80;;
36585;SDS011;22591;48.314;11.562;2022-12-18T06:21:53;69.83;;;28.63;;
36585;SDS011;22591;48.314;11.562;2022-12-18T06:24:19;79.20;;;31.57;;
36585;SDS011;22591;48.314;11.562;2022-12-18T06:26:45;68.30;;;27.27;;
36585;SDS011;22591;48.314;11.562;2022-12-18T06:29:10;70.20;;;28.60;;
36585;SDS011;22591;48.314;11.562;2022-12-18T06:31:36;71.27;;;27.17;;
36585;SDS011;22591;48.314;11.562;2022-12-18T06:34:02;74.13;;;29.50;;
36585;SDS011;22591;48.314;11.562;2022-12-18T06:36:28;62.17;;;27.60;;
36585;SDS011;22591;48.314;11.562;2022-12-18T06:38:53;79.30;;;29.43;;
36585;SDS011;22591;48.314;11.562;2022-12-18T06:41:20;75.60;;;31.70;;
36585;SDS011;22591;48.314;11.562;2022-12-18T06:43:46;63.63;;;28.70;;
36585;SDS011;22591;48.314;11.562;2022-12-18T06:46:11;74.70;;;31.10;;
36585;SDS011;22591;48.314;11.562;2022-12-18T06:48:38;73.63;;;32.07;;
36585;SDS011;22591;48.314;11.562;2022-12-18T06:51:04;76.20;;;31.87;;
36585;SDS011;22591;48.314;11.562;2022-12-18T06:53:29;86.57;;;31.30;;
36585;SDS011;22591;48.314;11.562;2022-12-18T06:56:01;78.80;;;32.03;;
36585;SDS011;22591;48.314;11.562;2022-12-18T06:58:27;85.90;;;34.67;;
36585;SDS011;22591;48.314;11.562;2022-12-18T07:00:53;81.30;;;33.43;;
36585;SDS011;22591;48.314;11.562;2022-12-18T07:03:18;88.03;;;32.17;;
36585;SDS011;22591;48.314;11.562;2022-12-18T07:05:44;90.67;;;35.80;;
36585;SDS011;22591;48.314;11.562;2022-12-18T07:08:09;82.50;;;34.80;;
36585;SDS011;22591;48.314;11.562;2022-12-18T07:10:42;85.33;;;35.27;;
36585;SDS011;22591;48.314;11.562;2022-12-18T07:13:08;86.43;;;34.53;;
36585;SDS011;22591;48.314;11.562;2022-12-18T07:15:33;82.90;;;33.63;;
36585;SDS011;22591;48.314;11.562;2022-12-18T07:17:59;64.87;;;31.13;;
36585;SDS011;22591;48.314;11.562;2022-12-18T07:20:24;75.87;;;29.43;;
36585;SDS011;22591;48.314;11.562;2022-12-18T07:22:50;70.23;;;29.73;;
36585;SDS011;22591;48.314;11.562;2022-12-18T07:25:15;71.57;;;28.27;;
36585;SDS011;22591;48.314;11.562;2022-12-18T07:27:41;71.40;;;30.63;;
36585;SDS011;22591;48.314;11.562;2022-12-18T07:30:06;73.40;;;30.67;;
36585;SDS011;22591;48.314;11.562;2022-12-18T07:32:32;72.67;;;30.93;;
36585;SDS011;22591;48.314;11.562;2022-12-18T07:34:59;69.63;;;30.67;;
36585;SDS011;22591;48.314;11.562;2022-12-18T07:37:24;73.10;;;33.00;;
36585;SDS011;22591;48.314;11.562;2022-12-18T07:39:50;77.40;;;29.47;;
36585;SDS011;22591;48.314;11.562;2022-12-18T07:42:16;73.33;;;33.47;;
36585;SDS011;22591;48.314;11.562;2022-12-18T07:44:57;76.73;;;31.73;;
36585;SDS011;22591;48.314;11.562;2022-12-18T07:47:26;77.03;;;30.77;;
36585;SDS011;22591;48.314;11.562;2022-12-18T07:49:52;75.97;;;29.57;;
36585;SDS011;22591;48.314;11.562;2022-12-18T07:52:18;80.87;;;34.63;;
36585;SDS011;22591;48.314;11.562;2022-12-18T07:54:44;81.77;;;32.57;;
36585;SDS011;22591;48.314;11.562;2022-12-18T07:57:10;79.70;;;31.87;;
36585;SDS011;22591;48.314;11.562;2022-12-18T07:59:36;70.37;;;32.17;;
36585;SDS011;22591;48.314;11.562;2022-12-18T08:02:02;81.30;;;31.43;;
36585;SDS011;22591;48.314;11.562;2022-12-18T08:04:27;84.53;;;33.63;;
36585;SDS011;22591;48.314;11.562;2022-12-18T08:06:53;75.90;;;32.20;;
36585;SDS011;22591;48.314;11.562;2022-12-18T08:09:19;77.90;;;32.53;;
36585;SDS011;22591;48.314;11.562;2022-12-18T08:11:44;71.63;;;29.83;;
36585;SDS011;22591;48.314;11.562;2022-12-18T08:14:10;67.43;;;28.47;;
36585;SDS011;22591;48.314;11.562;2022-12-18T08:16:36;67.93;;;28.73;;
36585;SDS011;22591;48.314;11.562;2022-12-18T08:19:02;77.03;;;31.07;;
36585;SDS011;22591;48.314;11.562;2022-12-18T08:21:28;70.10;;;29.23;;
36585;SDS011;22591;48.314;11.562;2022-12-18T08:23:55;69.30;;;28.70;;
36585;SDS011;22591;48.314;11.562;2022-12-18T08:26:24;71.67;;;32.87;;
36585;SDS011;22591;48.314;11.562;2022-12-18T08:28:51;65.50;;;29.47;;
36585;SDS011;22591;48.314;11.562;2022-12-18T08:31:18;62.23;;;26.67;;
36585;SDS011;22591;48.314;11.562;2022-12-18T08:33:44;56.70;;;26.40;;
36585;SDS011;22591;48.314;11.562;2022-12-18T08:36:10;60.40;;;27.43;;
36585;SDS011;22591;48.314;11.562;2022-12-18T08:38:36;56.67;;;27.03;;
36585;SDS011;22591;48.314;11.562;2022-12-18T08:41:02;66.13;;;31.17;;
36585;SDS011;22591;48.314;11.562;2022-12-18T08:43:29;59.67;;;28.60;;
36585;SDS011;22591;48.314;11.562;2022-12-18T08:46:13;65.00;;;28.73;;
36585;SDS011;22591;48.314;11.562;2022-12-18T08:48:39;65.00;;;27.67;;
36585;SDS011;22591;48.314;11.562;2022-12-18T08:51:05;57.50;;;26.93;;
36585;SDS011;22591;48.314;11.562;2022-12-18T08:53:30;59.00;;;27.60;;
36585;SDS011;22591;48.314;11.562;2022-12-18T08:55:56;60.23;;;27.13;;
36585;SDS011;22591;48.314;11.562;2022-12-18T08:58:22;59.90;;;28.92;;
36585;SDS011;22591;48.314;11.562;2022-12-18T09:00:47;55.20;;;27.50;;
36585;SDS011;22591;48.314;11.562;2022-12-18T09:03:14;65.90;;;28.73;;
36585;SDS011;22591;48.314;11.562;2022-12-18T09:05:43;56.00;;;26.90;;
36585;SDS011;22591;48.314;11.562;2022-12-18T09:08:11;60.10;;;27.00;;
36585;SDS011;22591;48.314;11.562;2022-12-18T09:10:41;59.50;;;28.43;;
36585;SDS011;22591;48.314;11.562;2022-12-18T09:13:09;61.83;;;29.98;;
36585;SDS011;22591;48.314;11.562;2022-12-18T09:15:39;59.35;;;28.25;;
36585;SDS011;22591;48.314;11.562;2022-12-18T09:18:10;53.20;;;27.45;;
36585;SDS011;22591;48.314;11.562;2022-12-18T09:20:36;45.88;;;25.10;;
36585;SDS011;22591;48.314;11.562;2022-12-18T09:23:03;46.08;;;22.33;;
36585;SDS011;22591;48.314;11.562;2022-12-18T09:25:29;41.25;;;22.20;;
36585;SDS011;22591;48.314;11.562;2022-12-18T09:28:10;44.65;;;23.13;;
36585;SDS011;22591;48.314;11.562;2022-12-18T09:30:38;46.13;;;24.15;;
36585;SDS011;22591;48.314;11.562;2022-12-18T09:33:04;46.38;;;25.02;;
36585;SDS011;22591;48.314;11.562;2022-12-18T09:35:30;46.75;;;23.77;;
36585;SDS011;22591;48.314;11.562;2022-12-18T09:37:55;50.03;;;25.77;;
36585;SDS011;22591;48.314;11.562;2022-12-18T09:40:22;44.33;;;23.23;;
36585;SDS011;22591;48.314;11.562;2022-12-18T09:43:00;52.10;;;25.98;;
36585;SDS011;22591;48.314;11.562;2022-12-18T09:45:35;45.30;;;24.20;;
36585;SDS011;22591;48.314;11.562;2022-12-18T09:48:10;46.58;;;25.50;;
36585;SDS011;22591;48.314;11.562;2022-12-18T09:50:45;42.58;;;23.05;;
36585;SDS011;22591;48.314;11.562;2022-12-18T09:53:14;47.53;;;25.15;;
36585;SDS011;22591;48.314;11.562;2022-12-18T09:55:45;41.65;;;23.20;;
36585;SDS011;22591;48.314;11.562;2022-12-18T09:58:15;43.92;;;22.73;;
36585;SDS011;22591;48.314;11.562;2022-12-18T10:00:45;45.80;;;23.10;;
36585;SDS011;22591;48.314;11.562;2022-12-18T10:03:11;42.08;;;21.02;;
36585;SDS011;22591;48.314;11.562;2022-12-18T10:05:56;42.10;;;22.90;;
36585;SDS011;22591;48.314;11.562;2022-12-18T10:08:40;45.33;;;22.60;;
36585;SDS011;22591;48.314;11.562;2022-12-18T10:14:50;43.80;;;23.15;;
36585;SDS011;22591;48.314;11.562;2022-12-18T10:20:18;45.67;;;21.73;;
36585;SDS011;22591;48.314;11.562;2022-12-18T10:22:55;40.40;;;19.48;;
36585;SDS011;22591;48.314;11.562;2022-12-18T10:27:57;36.83;;;19.80;;
36585;SDS011;22591;48.314;11.562;2022-12-18T10:30:25;34.22;;;18.98;;
36585;SDS011;22591;48.314;11.562;2022-12-18T10:32:51;34.55;;;17.95;;
36585;SDS011;22591;48.314;11.562;2022-12-18T10:35:24;37.38;;;19.00;;
36585;SDS011;22591;48.314;11.562;2022-12-18T10:43:14;45.65;;;23.40;;
36585;SDS011;22591;48.314;11.562;2022-12-18T10:45:41;36.55;;;21.63;;
36585;SDS011;22591;48.314;11.562;2022-12-18T10:48:21;34.80;;;18.97;;
36585;SDS011;22591;48.314;11.562;2022-12-18T10:50:49;34.42;;;18.77;;
36585;SDS011;22591;48.314;11.562;2022-12-18T10:53:20;37.58;;;22.33;;
36585;SDS011;22591;48.314;11.562;2022-12-18T10:55:52;38.50;;;22.80;;
36585;SDS011;22591;48.314;11.562;2022-12-18T10:58:23;36.85;;;21.48;;
36585;SDS011;22591;48.314;11.562;2022-12-18T11:01:01;42.00;;;23.35;;
36585;SDS011;22591;48.314;11.562;2022-12-18T11:03:30;39.75;;;21.65;;
36585;SDS011;22591;48.314;11.562;2022-12-18T11:06:21;42.10;;;22.00;;
36585;SDS011;22591;48.314;11.562;2022-12-18T11:09:02;38.92;;;21.65;;
36585;SDS011;22591;48.314;11.562;2022-12-18T11:11:29;40.13;;;21.15;;
36585;SDS011;22591;48.314;11.562;2022-12-18T11:16:27;39.40;;;22.35;;
36585;SDS011;22591;48.314;11.562;2022-12-18T11:18:57;39.30;;;20.00;;
36585;SDS011;22591;48.314;11.562;2022-12-18T11:21:46;40.17;;;21.52;;
36585;SDS011;22591;48.314;11.562;2022-12-18T11:26:57;41.53;;;23.00;;
36585;SDS011;22591;48.314;11.562;2022-12-18T11:29:35;40.13;;;22.10;;
36585;SDS011;22591;48.314;11.562;2022-12-18T11:34:41;37.22;;;21.63;;
36585;SDS011;22591;48.314;11.562;2022-12-18T11:37:10;40.90;;;23.77;;
36585;SDS011;22591;48.314;11.562;2022-12-18T11:39:40;39.67;;;22.15;;
36585;SDS011;22591;48.314;11.562;2022-12-18T11:53:02;37.67;;;22.33;;
36585;SDS011;22591;48.314;11.562;2022-12-18T11:55:39;41.25;;;20.52;;
36585;SDS011;22591;48.314;11.562;2022-12-18T12:00:41;34.08;;;21.45;;
36585;SDS011;22591;48.314;11.562;2022-12-18T12:06:58;41.88;;;22.60;;
36585;SDS011;22591;48.314;11.562;2022-12-18T12:14:35;37.03;;;22.23;;
36585;SDS011;22591;48.314;11.562;2022-12-18T12:17:53;40.15;;;23.77;;
36585;SDS011;22591;48.314;11.562;2022-12-18T12:22:57;42.67;;;23.10;;
36585;SDS011;22591;48.314;11.562;2022-12-18T12:25:33;43.42;;;21.88;;
36585;SDS011;22591;48.314;11.562;2022-12-18T12:29:15;42.38;;;24.35;;
36585;SDS011;22591;48.314;11.562;2022-12-18T12:37:19;36.92;;;23.33;;
36585;SDS011;22591;48.314;11.562;2022-12-18T12:42:32;37.80;;;21.48;;
36585;SDS011;22591;48.314;11.562;2022-12-18T12:45:23;42.92;;;24.08;;
36585;SDS011;22591;48.314;11.562;2022-12-18T12:47:54;41.55;;;23.88;;
36585;SDS011;22591;48.314;11.562;2022-12-18T12:50:20;37.88;;;23.35;;
36585;SDS011;22591;48.314;11.562;2022-12-18T12:52:51;39.75;;;22.13;;
36585;SDS011;22591;48.314;11.562;2022-12-18T12:57:53;37.33;;;22.85;;
36585;SDS011;22591;48.314;11.562;2022-12-18T13:05:21;42.83;;;22.77;;
36585;SDS011;22591;48.314;11.562;2022-12-18T13:07:52;41.03;;;22.48;;
36585;SDS011;22591;48.314;11.562;2022-12-18T13:10:24;49.22;;;25.65;;
36585;SDS011;22591;48.314;11.562;2022-12-18T13:12:56;47.13;;;24.13;;
36585;SDS011;22591;48.314;11.562;2022-12-18T13:15:28;40.90;;;23.50;;
36585;SDS011;22591;48.314;11.562;2022-12-18T13:25:49;49.75;;;27.63;;
36585;SDS011;22591;48.314;11.562;2022-12-18T13:28:24;45.78;;;24.70;;
36585;SDS011;22591;48.314;11.562;2022-12-18T13:31:11;43.05;;;23.00;;
36585;SDS011;22591;48.314;11.562;2022-12-18T13:34:17;45.00;;;25.90;;
36585;SDS011;22591;48.314;11.562;2022-12-18T13:36:44;46.13;;;23.25;;
36585;SDS011;22591;48.314;11.562;2022-12-18T13:41:54;41.00;;;21.55;;
36585;SDS011;22591;48.314;11.562;2022-12-18T13:44:55;48.78;;;23.65;;
36585;SDS011;22591;48.314;11.562;2022-12-18T13:47:26;43.33;;;23.20;;
36585;SDS011;22591;48.314;11.562;2022-12-18T13:49:57;42.90;;;22.23;;
36585;SDS011;22591;48.314;11.562;2022-12-18T13:52:26;51.10;;;24.88;;
36585;SDS011;22591;48.314;11.562;2022-12-18T13:54:58;49.30;;;24.60;;
36585;SDS011;22591;48.314;11.562;2022-12-18T13:59:59;50.10;;;26.30;;
36585;SDS011;22591;48.314;11.562;2022-12-18T14:02:44;44.10;;;23.20;;
36585;SDS011;22591;48.314;11.562;2022-12-18T14:05:21;49.37;;;25.13;;
36585;SDS011;22591;48.314;11.562;2022-12-18T14:07:53;46.13;;;24.33;;
36585;SDS011;22591;48.314;11.562;2022-12-18T14:10:19;41.70;;;24.27;;
36585;SDS011;22591;48.314;11.562;2022-12-18T14:12:49;45.20;;;23.30;;
36585;SDS011;22591;48.314;11.562;2022-12-18T14:15:24;51.83;;;25.53;;
36585;SDS011;22591;48.314;11.562;2022-12-18T14:17:52;50.70;;;24.13;;
36585;SDS011;22591;48.314;11.562;2022-12-18T14:20:29;49.63;;;26.10;;
36585;SDS011;22591;48.314;11.562;2022-12-18T14:22:57;43.40;;;24.50;;
36585;SDS011;22591;48.314;11.562;2022-12-18T14:25:25;45.03;;;24.07;;
36585;SDS011;22591;48.314;11.562;2022-12-18T14:28:02;54.97;;;24.73;;
36585;SDS011;22591;48.314;11.562;2022-12-18T14:30:35;49.63;;;24.60;;
36585;SDS011;22591;48.314;11.562;2022-12-18T14:33:08;51.10;;;24.13;;
36585;SDS011;22591;48.314;11.562;2022-12-18T14:35:35;51.47;;;23.93;;
36585;SDS011;22591;48.314;11.562;2022-12-18T14:40:59;44.03;;;21.83;;
36585;SDS011;22591;48.314;11.562;2022-12-18T14:43:27;47.33;;;22.17;;
36585;SDS011;22591;48.314;11.562;2022-12-18T14:45:54;49.73;;;24.23;;
36585;SDS011;22591;48.314;11.562;2022-12-18T14:48:33;50.57;;;23.93;;
36585;SDS011;22591;48.314;11.562;2022-12-18T14:53:48;47.67;;;25.03;;
36585;SDS011;22591;48.314;11.562;2022-12-18T14:56:20;42.17;;;22.73;;
36585;SDS011;22591;48.314;11.562;2022-12-18T14:58:48;47.37;;;22.90;;
36585;SDS011;22591;48.314;11.562;2022-12-18T15:01:28;51.47;;;23.20;;
36585;SDS011;22591;48.314;11.562;2022-12-18T15:04:00;53.90;;;25.47;;
36585;SDS011;22591;48.314;11.562;2022-12-18T15:06:32;53.93;;;25.20;;
36585;SDS011;22591;48.314;11.562;2022-12-18T15:09:00;49.87;;;25.53;;
36585;SDS011;22591;48.314;11.562;2022-12-18T15:13:59;51.50;;;26.53;;
36585;SDS011;22591;48.314;11.562;2022-12-18T15:16:25;55.70;;;25.83;;
36585;SDS011;22591;48.314;11.562;2022-12-18T15:18:51;56.37;;;25.13;;
36585;SDS011;22591;48.314;11.562;2022-12-18T15:21:18;60.30;;;27.23;;
36585;SDS011;22591;48.314;11.562;2022-12-18T15:26:16;53.53;;;27.47;;
36585;SDS011;22591;48.314;11.562;2022-12-18T15:33:41;52.53;;;26.07;;
36585;SDS011;22591;48.314;11.562;2022-12-18T15:36:24;55.07;;;26.70;;
36585;SDS011;22591;48.314;11.562;2022-12-18T15:38:50;53.40;;;26.77;;
36585;SDS011;22591;48.314;11.562;2022-12-18T15:41:18;49.80;;;25.33;;
36585;SDS011;22591;48.314;11.562;2022-12-18T15:43:46;50.20;;;25.60;;
36585;SDS011;22591;48.314;11.562;2022-12-18T15:46:15;55.80;;;26.80;;
36585;SDS011;22591;48.314;11.562;2022-12-18T15:48:43;53.47;;;26.57;;
36585;SDS011;22591;48.314;11.562;2022-12-18T15:51:17;54.57;;;26.60;;
36585;SDS011;22591;48.314;11.562;2022-12-18T15:53:45;52.77;;;25.23;;
36585;SDS011;22591;48.314;11.562;2022-12-18T15:56:12;51.37;;;25.97;;
36585;SDS011;22591;48.314;11.562;2022-12-18T15:58:57;50.47;;;27.27;;
36585;SDS011;22591;48.314;11.562;2022-12-18T16:01:23;51.27;;;27.13;;
36585;SDS011;22591;48.314;11.562;2022-12-18T16:03:50;49.67;;;26.53;;
36585;SDS011;22591;48.314;11.562;2022-12-18T16:06:15;50.07;;;25.43;;
36585;SDS011;22591;48.314;11.562;2022-12-18T16:08:41;51.30;;;25.87;;
36585;SDS011;22591;48.314;11.562;2022-12-18T16:11:27;56.33;;;25.90;;
36585;SDS011;22591;48.314;11.562;2022-12-18T16:14:12;54.33;;;26.50;;
36585;SDS011;22591;48.314;11.562;2022-12-18T16:16:46;52.60;;;27.83;;
36585;SDS011;22591;48.314;11.562;2022-12-18T16:19:13;56.23;;;27.63;;